sensor_id;sensor_type;location;lat;lon;timestamp;pressure;altitude;pressure_sealevel;temperature;humidity
73824;BME280;62154;54.914;73.444;2022-12-29T00:00:55;101894.25;;;-13.78;91.43
73824;BME280;62154;54.914;73.444;2022-12-29T00:03:27;101816.78;;;-14.20;91.01
73824;BME280;62154;54.914;73.444;2022-12-29T00:05:55;101876.59;;;-13.85;90.86
73824;BME280;62154;54.914;73.444;2022-12-29T00:08:29;101900.53;;;-13.80;90.92
73824;BME280;62154;54.914;73.444;2022-12-29T00:11:18;101891.63;;;-13.81;91.13
73824;BME280;62154;54.914;73.444;2022-12-29T00:13:46;101861.81;;;-14.03;91.01
73824;BME280;62154;54.914;73.444;2022-12-29T00:16:37;101896.81;;;-13.73;91.58
73824;BME280;62154;54.914;73.444;2022-12-29T00:19:04;101894.09;;;-13.68;91.37
73824;BME280;62154;54.914;73.444;2022-12-29T00:21:38;101868.53;;;-13.80;91.51
73824;BME280;62154;54.914;73.444;2022-12-29T00:24:24;101894.88;;;-13.63;90.83
73824;BME280;62154;54.914;73.444;2022-12-29T00:27:15;101897.53;;;-13.63;91.05
73824;BME280;62154;54.914;73.444;2022-12-29T00:30:00;101896.56;;;-13.57;91.10
73824;BME280;62154;54.914;73.444;2022-12-29T00:32:46;101885.91;;;-13.57;90.92
73824;BME280;62154;54.914;73.444;2022-12-29T00:35:45;101893.78;;;-13.51;90.75
73824;BME280;62154;54.914;73.444;2022-12-29T00:38:12;101895.59;;;-13.53;90.56
73824;BME280;62154;54.914;73.444;2022-12-29T00:40:58;101893.84;;;-13.54;90.55
73824;BME280;62154;54.914;73.444;2022-12-29T00:43:55;101903.78;;;-13.63;90.50
73824;BME280;62154;54.914;73.444;2022-12-29T00:46:41;101889.69;;;-13.71;90.63
73824;BME280;62154;54.914;73.444;2022-12-29T00:49:19;101898.56;;;-13.69;90.81
73824;BME280;62154;54.914;73.444;2022-12-29T00:54:32;101910.84;;;-13.60;91.33
73824;BME280;62154;54.914;73.444;2022-12-29T00:57:00;101892.34;;;-13.71;90.73
73824;BME280;62154;54.914;73.444;2022-12-29T00:59:27;101912.56;;;-13.57;90.93
73824;BME280;62154;54.914;73.444;2022-12-29T01:02:02;101891.53;;;-13.74;90.64
73824;BME280;62154;54.914;73.444;2022-12-29T01:04:32;101845.84;;;-14.04;90.91
73824;BME280;62154;54.914;73.444;2022-12-29T01:06:59;101911.13;;;-13.77;91.02
73824;BME280;62154;54.914;73.444;2022-12-29T01:09:26;101918.38;;;-13.87;91.26
73824;BME280;62154;54.914;73.444;2022-12-29T01:12:22;101826.03;;;-14.43;91.45
73824;BME280;62154;54.914;73.444;2022-12-29T01:15:11;101926.28;;;-13.81;91.49
73824;BME280;62154;54.914;73.444;2022-12-29T01:17:40;101924.41;;;-13.74;91.76
73824;BME280;62154;54.914;73.444;2022-12-29T01:20:17;101833.69;;;-14.22;91.63
73824;BME280;62154;54.914;73.444;2022-12-29T01:22:50;101902.50;;;-13.91;91.46
73824;BME280;62154;54.914;73.444;2022-12-29T01:25:25;101873.41;;;-14.05;91.54
73824;BME280;62154;54.914;73.444;2022-12-29T01:27:52;101895.31;;;-13.89;91.63
73824;BME280;62154;54.914;73.444;2022-12-29T01:30:19;101853.00;;;-14.08;91.79
73824;BME280;62154;54.914;73.444;2022-12-29T01:32:47;101918.16;;;-13.73;91.21
73824;BME280;62154;54.914;73.444;2022-12-29T01:35:14;101920.84;;;-13.74;91.44
73824;BME280;62154;54.914;73.444;2022-12-29T01:37:42;101897.88;;;-13.82;91.50
73824;BME280;62154;54.914;73.444;2022-12-29T01:40:19;101836.22;;;-14.15;91.60
73824;BME280;62154;54.914;73.444;2022-12-29T01:42:47;101912.69;;;-13.64;91.20
73824;BME280;62154;54.914;73.444;2022-12-29T01:45:16;101896.75;;;-13.68;91.30
73824;BME280;62154;54.914;73.444;2022-12-29T01:47:54;101914.44;;;-13.63;91.36
73824;BME280;62154;54.914;73.444;2022-12-29T01:50:28;101910.88;;;-13.63;91.10
73824;BME280;62154;54.914;73.444;2022-12-29T01:53:08;101904.69;;;-13.64;91.15
73824;BME280;62154;54.914;73.444;2022-12-29T01:55:46;101853.63;;;-13.94;90.90
73824;BME280;62154;54.914;73.444;2022-12-29T01:58:18;101929.41;;;-13.54;90.80
73824;BME280;62154;54.914;73.444;2022-12-29T02:00:46;101828.09;;;-14.05;90.96
73824;BME280;62154;54.914;73.444;2022-12-29T02:03:21;101910.88;;;-13.63;90.79
73824;BME280;62154;54.914;73.444;2022-12-29T02:08:38;101917.00;;;-13.58;90.82
73824;BME280;62154;54.914;73.444;2022-12-29T02:11:07;101924.19;;;-13.60;90.44
73824;BME280;62154;54.914;73.444;2022-12-29T02:13:45;101910.84;;;-13.62;90.89
73824;BME280;62154;54.914;73.444;2022-12-29T02:19:40;101840.53;;;-14.06;91.16
73824;BME280;62154;54.914;73.444;2022-12-29T02:22:34;101917.91;;;-13.57;91.07
73824;BME280;62154;54.914;73.444;2022-12-29T02:25:41;101927.66;;;-13.55;90.88
73824;BME280;62154;54.914;73.444;2022-12-29T02:34:16;101926.09;;;-13.68;90.38
73824;BME280;62154;54.914;73.444;2022-12-29T02:37:07;101901.44;;;-13.81;90.78
73824;BME280;62154;54.914;73.444;2022-12-29T02:42:40;101920.91;;;-13.78;90.88
73824;BME280;62154;54.914;73.444;2022-12-29T02:45:41;101927.94;;;-13.73;91.09
73824;BME280;62154;54.914;73.444;2022-12-29T02:48:41;101921.69;;;-13.71;91.25
73824;BME280;62154;54.914;73.444;2022-12-29T02:51:20;101912.03;;;-13.78;90.32
73824;BME280;62154;54.914;73.444;2022-12-29T02:53:48;101783.72;;;-14.61;90.38
73824;BME280;62154;54.914;73.444;2022-12-29T02:56:36;101926.38;;;-13.87;90.51
73824;BME280;62154;54.914;73.444;2022-12-29T02:59:03;101919.38;;;-13.92;90.27
73824;BME280;62154;54.914;73.444;2022-12-29T03:02:08;101857.91;;;-14.35;90.66
73824;BME280;62154;54.914;73.444;2022-12-29T03:05:11;101945.03;;;-13.85;91.30
73824;BME280;62154;54.914;73.444;2022-12-29T03:10:51;101956.44;;;-13.77;90.71
73824;BME280;62154;54.914;73.444;2022-12-29T03:13:43;101960.88;;;-13.76;90.92
73824;BME280;62154;54.914;73.444;2022-12-29T03:16:34;101962.69;;;-13.78;90.70
73824;BME280;62154;54.914;73.444;2022-12-29T03:24:48;101950.66;;;-14.04;90.30
73824;BME280;62154;54.914;73.444;2022-12-29T03:27:46;101949.00;;;-14.11;91.08
73824;BME280;62154;54.914;73.444;2022-12-29T03:30:13;101946.19;;;-14.03;90.89
73824;BME280;62154;54.914;73.444;2022-12-29T03:32:55;101969.16;;;-13.93;90.66
73824;BME280;62154;54.914;73.444;2022-12-29T03:35:31;101964.78;;;-13.99;90.01
73824;BME280;62154;54.914;73.444;2022-12-29T03:40:53;101968.19;;;-13.87;90.88
73824;BME280;62154;54.914;73.444;2022-12-29T03:43:29;101889.09;;;-14.43;89.99
73824;BME280;62154;54.914;73.444;2022-12-29T03:45:57;101962.94;;;-13.94;90.30
73824;BME280;62154;54.914;73.444;2022-12-29T03:48:24;101962.16;;;-14.00;89.95
73824;BME280;62154;54.914;73.444;2022-12-29T03:50:54;101970.91;;;-13.92;90.39
73824;BME280;62154;54.914;73.444;2022-12-29T03:53:23;101967.44;;;-13.96;90.29
73824;BME280;62154;54.914;73.444;2022-12-29T03:55:53;101953.56;;;-14.19;90.14
73824;BME280;62154;54.914;73.444;2022-12-29T03:58:20;101888.47;;;-14.62;90.41
73824;BME280;62154;54.914;73.444;2022-12-29T04:01:12;101989.00;;;-14.13;90.95
73824;BME280;62154;54.914;73.444;2022-12-29T04:03:39;101885.91;;;-14.67;90.98
73824;BME280;62154;54.914;73.444;2022-12-29T04:06:07;101950.94;;;-14.22;90.70
73824;BME280;62154;54.914;73.444;2022-12-29T04:08:43;101979.13;;;-14.07;90.86
73824;BME280;62154;54.914;73.444;2022-12-29T04:11:10;101975.72;;;-14.16;90.58
73824;BME280;62154;54.914;73.444;2022-12-29T04:13:38;101972.22;;;-14.19;90.73
73824;BME280;62154;54.914;73.444;2022-12-29T04:16:09;101975.00;;;-14.29;90.60
73824;BME280;62154;54.914;73.444;2022-12-29T04:18:36;101870.31;;;-14.95;90.54
73824;BME280;62154;54.914;73.444;2022-12-29T04:21:09;101903.78;;;-14.75;90.78
73824;BME280;62154;54.914;73.444;2022-12-29T04:23:40;101878.91;;;-14.76;91.35
73824;BME280;62154;54.914;73.444;2022-12-29T04:26:09;101836.53;;;-14.91;91.08
73824;BME280;62154;54.914;73.444;2022-12-29T04:28:59;101941.09;;;-14.16;91.28
73824;BME280;62154;54.914;73.444;2022-12-29T04:31:40;101958.72;;;-14.08;90.40
73824;BME280;62154;54.914;73.444;2022-12-29T04:34:09;101979.72;;;-13.87;90.78
73824;BME280;62154;54.914;73.444;2022-12-29T04:36:38;101989.47;;;-13.84;90.69
73824;BME280;62154;54.914;73.444;2022-12-29T04:39:06;102007.13;;;-13.77;90.20
73824;BME280;62154;54.914;73.444;2022-12-29T04:41:35;101997.19;;;-13.67;90.74
73824;BME280;62154;54.914;73.444;2022-12-29T04:44:03;101999.72;;;-13.59;90.47
73824;BME280;62154;54.914;73.444;2022-12-29T04:46:50;101990.09;;;-13.68;89.59
73824;BME280;62154;54.914;73.444;2022-12-29T04:49:38;102006.19;;;-13.74;89.63
73824;BME280;62154;54.914;73.444;2022-12-29T04:52:24;102003.50;;;-13.71;89.90
73824;BME280;62154;54.914;73.444;2022-12-29T04:54:52;102011.44;;;-13.68;90.09
73824;BME280;62154;54.914;73.444;2022-12-29T04:57:21;101990.22;;;-13.76;90.29
73824;BME280;62154;54.914;73.444;2022-12-29T05:00:02;102016.63;;;-13.61;90.32
73824;BME280;62154;54.914;73.444;2022-12-29T05:02:40;101989.34;;;-13.78;90.01
73824;BME280;62154;54.914;73.444;2022-12-29T05:05:08;102006.25;;;-13.78;89.58
73824;BME280;62154;54.914;73.444;2022-12-29T05:07:39;102013.31;;;-13.75;90.02
73824;BME280;62154;54.914;73.444;2022-12-29T05:10:07;101909.22;;;-14.23;90.76
73824;BME280;62154;54.914;73.444;2022-12-29T05:12:37;102009.44;;;-13.55;90.43
73824;BME280;62154;54.914;73.444;2022-12-29T05:15:06;102013.84;;;-13.51;90.10
73824;BME280;62154;54.914;73.444;2022-12-29T05:17:35;102013.69;;;-13.45;90.24
73824;BME280;62154;54.914;73.444;2022-12-29T05:20:04;102007.28;;;-13.35;90.28
73824;BME280;62154;54.914;73.444;2022-12-29T05:22:33;101944.78;;;-13.70;89.93
73824;BME280;62154;54.914;73.444;2022-12-29T05:25:08;101998.47;;;-13.37;89.51
73824;BME280;62154;54.914;73.444;2022-12-29T05:27:47;101984.31;;;-13.42;89.81
73824;BME280;62154;54.914;73.444;2022-12-29T05:30:30;102007.97;;;-13.22;89.69
73824;BME280;62154;54.914;73.444;2022-12-29T05:32:57;102000.72;;;-13.15;90.11
73824;BME280;62154;54.914;73.444;2022-12-29T05:35:25;101931.25;;;-13.59;88.79
73824;BME280;62154;54.914;73.444;2022-12-29T05:38:02;102017.59;;;-13.15;88.79
73824;BME280;62154;54.914;73.444;2022-12-29T05:40:30;102008.72;;;-13.15;88.56
73824;BME280;62154;54.914;73.444;2022-12-29T05:43:07;101977.88;;;-13.32;89.10
73824;BME280;62154;54.914;73.444;2022-12-29T05:45:48;101984.03;;;-13.28;88.59
73824;BME280;62154;54.914;73.444;2022-12-29T05:48:57;102005.22;;;-13.19;88.60
73824;BME280;62154;54.914;73.444;2022-12-29T05:51:55;101920.78;;;-13.70;88.30
73824;BME280;62154;54.914;73.444;2022-12-29T05:54:22;101999.06;;;-13.22;88.65
73824;BME280;62154;54.914;73.444;2022-12-29T05:57:00;101857.28;;;-13.98;88.87
73824;BME280;62154;54.914;73.444;2022-12-29T05:59:28;102016.28;;;-12.90;89.03
73824;BME280;62154;54.914;73.444;2022-12-29T06:01:55;101989.72;;;-12.98;88.38
73824;BME280;62154;54.914;73.444;2022-12-29T06:04:23;102017.63;;;-12.69;88.32
73824;BME280;62154;54.914;73.444;2022-12-29T06:06:54;101879.72;;;-13.59;86.69
73824;BME280;62154;54.914;73.444;2022-12-29T06:09:31;102026.84;;;-12.84;87.08
73824;BME280;62154;54.914;73.444;2022-12-29T06:11:59;102013.78;;;-13.00;87.32
73824;BME280;62154;54.914;73.444;2022-12-29T06:14:26;102030.53;;;-12.91;87.83
73824;BME280;62154;54.914;73.444;2022-12-29T06:16:59;102029.63;;;-12.92;87.88
73824;BME280;62154;54.914;73.444;2022-12-29T06:19:36;102029.78;;;-13.00;87.36
73824;BME280;62154;54.914;73.444;2022-12-29T06:22:04;102014.03;;;-13.12;87.94
73824;BME280;62154;54.914;73.444;2022-12-29T06:24:34;102028.84;;;-12.96;88.24
73824;BME280;62154;54.914;73.444;2022-12-29T06:27:02;101945.09;;;-13.37;87.62
73824;BME280;62154;54.914;73.444;2022-12-29T06:29:29;101913.25;;;-13.46;87.67
73824;BME280;62154;54.914;73.444;2022-12-29T06:31:58;101942.31;;;-13.32;87.58
73824;BME280;62154;54.914;73.444;2022-12-29T06:34:26;102022.41;;;-12.87;87.70
73824;BME280;62154;54.914;73.444;2022-12-29T06:36:58;102018.03;;;-12.89;87.08
73824;BME280;62154;54.914;73.444;2022-12-29T06:39:25;102019.00;;;-12.93;87.03
73824;BME280;62154;54.914;73.444;2022-12-29T06:42:19;101999.59;;;-13.02;87.20
73824;BME280;62154;54.914;73.444;2022-12-29T06:45:06;102002.41;;;-13.11;87.17
73824;BME280;62154;54.914;73.444;2022-12-29T06:47:39;101930.78;;;-13.34;87.50
73824;BME280;62154;54.914;73.444;2022-12-29T06:50:06;102001.00;;;-12.84;87.34
73824;BME280;62154;54.914;73.444;2022-12-29T06:52:33;101990.59;;;-12.98;86.78
73824;BME280;62154;54.914;73.444;2022-12-29T06:55:01;102021.50;;;-12.86;86.44
73824;BME280;62154;54.914;73.444;2022-12-29T06:57:38;102011.81;;;-12.90;86.38
73824;BME280;62154;54.914;73.444;2022-12-29T07:00:16;102020.84;;;-12.97;86.45
73824;BME280;62154;54.914;73.444;2022-12-29T07:02:44;101992.66;;;-13.12;86.34
73824;BME280;62154;54.914;73.444;2022-12-29T07:05:11;101947.75;;;-13.37;86.76
73824;BME280;62154;54.914;73.444;2022-12-29T07:07:40;101996.09;;;-13.05;86.99
73824;BME280;62154;54.914;73.444;2022-12-29T07:10:13;101984.78;;;-13.20;86.13
73824;BME280;62154;54.914;73.444;2022-12-29T07:12:41;102012.97;;;-13.05;86.49
73824;BME280;62154;54.914;73.444;2022-12-29T07:15:09;102002.28;;;-13.05;86.99
73824;BME280;62154;54.914;73.444;2022-12-29T07:17:37;102013.63;;;-12.90;87.40
73824;BME280;62154;54.914;73.444;2022-12-29T07:20:13;101934.22;;;-13.28;86.95
73824;BME280;62154;54.914;73.444;2022-12-29T07:22:41;102004.66;;;-12.88;85.74
73824;BME280;62154;54.914;73.444;2022-12-29T07:25:09;102003.88;;;-12.95;85.83
73824;BME280;62154;54.914;73.444;2022-12-29T07:27:36;102013.72;;;-12.97;85.50
73824;BME280;62154;54.914;73.444;2022-12-29T07:30:04;101993.50;;;-13.10;86.22
73824;BME280;62154;54.914;73.444;2022-12-29T07:32:34;102002.09;;;-12.94;86.35
73824;BME280;62154;54.914;73.444;2022-12-29T07:35:02;101978.31;;;-13.06;86.13
73824;BME280;62154;54.914;73.444;2022-12-29T07:37:30;101961.56;;;-13.16;85.97
73824;BME280;62154;54.914;73.444;2022-12-29T07:39:57;102004.13;;;-13.08;85.90
73824;BME280;62154;54.914;73.444;2022-12-29T07:42:25;101999.06;;;-13.22;86.01
73824;BME280;62154;54.914;73.444;2022-12-29T07:44:52;102005.09;;;-13.13;86.23
73824;BME280;62154;54.914;73.444;2022-12-29T07:47:55;101997.22;;;-13.19;86.44
73824;BME280;62154;54.914;73.444;2022-12-29T07:50:22;102003.44;;;-13.18;86.11
73824;BME280;62154;54.914;73.444;2022-12-29T07:52:50;102003.41;;;-13.17;86.05
73824;BME280;62154;54.914;73.444;2022-12-29T07:55:17;101939.19;;;-13.54;86.25
73824;BME280;62154;54.914;73.444;2022-12-29T07:57:44;101921.59;;;-13.65;85.87
73824;BME280;62154;54.914;73.444;2022-12-29T08:00:12;102002.50;;;-13.17;86.41
73824;BME280;62154;54.914;73.444;2022-12-29T08:02:39;101919.69;;;-13.58;86.46
73824;BME280;62154;54.914;73.444;2022-12-29T08:05:07;101992.59;;;-13.09;86.66
73824;BME280;62154;54.914;73.444;2022-12-29T08:07:39;101993.31;;;-12.99;86.56
73824;BME280;62154;54.914;73.444;2022-12-29T08:10:17;101996.97;;;-13.05;85.80
73824;BME280;62154;54.914;73.444;2022-12-29T08:12:44;102005.00;;;-13.06;85.98
73824;BME280;62154;54.914;73.444;2022-12-29T08:15:12;101980.00;;;-13.02;86.63
73824;BME280;62154;54.914;73.444;2022-12-29T08:17:39;101991.25;;;-12.85;86.64
73824;BME280;62154;54.914;73.444;2022-12-29T08:20:07;101981.34;;;-12.80;86.03
73824;BME280;62154;54.914;73.444;2022-12-29T08:22:34;101914.66;;;-13.28;85.08
73824;BME280;62154;54.914;73.444;2022-12-29T08:25:05;101857.47;;;-13.58;85.68
73824;BME280;62154;54.914;73.444;2022-12-29T08:27:33;101943.53;;;-13.02;85.70
73824;BME280;62154;54.914;73.444;2022-12-29T08:30:08;101995.25;;;-12.62;85.35
73824;BME280;62154;54.914;73.444;2022-12-29T08:32:36;101992.44;;;-12.56;85.34
73824;BME280;62154;54.914;73.444;2022-12-29T08:35:04;102003.03;;;-12.51;84.76
73824;BME280;62154;54.914;73.444;2022-12-29T08:37:41;102002.31;;;-12.59;84.18
73824;BME280;62154;54.914;73.444;2022-12-29T08:40:09;101913.50;;;-13.15;84.23
73824;BME280;62154;54.914;73.444;2022-12-29T08:42:46;102000.00;;;-12.78;83.40
73824;BME280;62154;54.914;73.444;2022-12-29T08:45:13;101996.81;;;-12.96;83.68
73824;BME280;62154;54.914;73.444;2022-12-29T08:47:41;101981.34;;;-13.26;83.88
73824;BME280;62154;54.914;73.444;2022-12-29T08:50:09;101987.69;;;-13.32;84.46
73824;BME280;62154;54.914;73.444;2022-12-29T08:52:47;101983.25;;;-13.33;84.72
73824;BME280;62154;54.914;73.444;2022-12-29T08:55:26;102002.09;;;-13.42;84.31
73824;BME280;62154;54.914;73.444;2022-12-29T08:57:54;102006.63;;;-13.46;84.92
73824;BME280;62154;54.914;73.444;2022-12-29T09:00:21;101915.91;;;-13.98;84.85
73824;BME280;62154;54.914;73.444;2022-12-29T09:02:48;101987.25;;;-13.57;84.86
73824;BME280;62154;54.914;73.444;2022-12-29T09:05:24;101920.59;;;-14.12;85.06
73824;BME280;62154;54.914;73.444;2022-12-29T09:07:55;101986.59;;;-13.72;84.94
73824;BME280;62154;54.914;73.444;2022-12-29T09:10:22;102003.34;;;-13.64;85.56
73824;BME280;62154;54.914;73.444;2022-12-29T09:12:50;101991.72;;;-13.59;85.72
73824;BME280;62154;54.914;73.444;2022-12-29T09:15:19;102006.63;;;-13.46;85.44
73824;BME280;62154;54.914;73.444;2022-12-29T09:17:56;101982.97;;;-13.66;84.81
73824;BME280;62154;54.914;73.444;2022-12-29T09:20:24;102015.72;;;-13.59;84.80
73824;BME280;62154;54.914;73.444;2022-12-29T09:23:01;102024.88;;;-13.76;84.86
73824;BME280;62154;54.914;73.444;2022-12-29T09:25:29;102022.22;;;-13.76;85.31
73824;BME280;62154;54.914;73.444;2022-12-29T09:27:56;101953.56;;;-14.19;85.40
73824;BME280;62154;54.914;73.444;2022-12-29T09:30:24;102015.22;;;-13.85;85.42
73824;BME280;62154;54.914;73.444;2022-12-29T09:32:54;101940.38;;;-14.27;85.74
73824;BME280;62154;54.914;73.444;2022-12-29T09:35:27;101993.03;;;-13.87;86.31
73824;BME280;62154;54.914;73.444;2022-12-29T09:37:54;102023.00;;;-13.68;85.98
73824;BME280;62154;54.914;73.444;2022-12-29T09:40:27;101940.34;;;-14.29;85.20
73824;BME280;62154;54.914;73.444;2022-12-29T09:45:40;102038.56;;;-13.99;85.68
73824;BME280;62154;54.914;73.444;2022-12-29T09:48:29;102035.19;;;-14.12;85.63
73824;BME280;62154;54.914;73.444;2022-12-29T09:51:00;102041.53;;;-14.22;85.44
73824;BME280;62154;54.914;73.444;2022-12-29T09:53:43;102034.41;;;-14.20;86.27
73824;BME280;62154;54.914;73.444;2022-12-29T09:56:18;102037.84;;;-14.12;86.32
73824;BME280;62154;54.914;73.444;2022-12-29T09:59:02;102035.16;;;-14.11;86.29
73824;BME280;62154;54.914;73.444;2022-12-29T10:04:04;101962.06;;;-14.55;85.88
73824;BME280;62154;54.914;73.444;2022-12-29T10:06:46;102029.00;;;-14.14;86.16
73824;BME280;62154;54.914;73.444;2022-12-29T10:12:22;102015.81;;;-14.27;86.00
73824;BME280;62154;54.914;73.444;2022-12-29T10:18:25;102037.16;;;-14.28;86.02
73824;BME280;62154;54.914;73.444;2022-12-29T10:21:08;102036.31;;;-14.32;86.28
73824;BME280;62154;54.914;73.444;2022-12-29T10:23:52;102042.56;;;-14.33;86.30
73824;BME280;62154;54.914;73.444;2022-12-29T10:26:33;102026.81;;;-14.53;85.65
73824;BME280;62154;54.914;73.444;2022-12-29T10:29:08;101969.59;;;-14.88;85.61
73824;BME280;62154;54.914;73.444;2022-12-29T10:34:38;102038.63;;;-14.72;86.11
73824;BME280;62154;54.914;73.444;2022-12-29T10:37:29;102042.22;;;-14.75;86.53
73824;BME280;62154;54.914;73.444;2022-12-29T10:42:49;102043.00;;;-14.65;86.94
73824;BME280;62154;54.914;73.444;2022-12-29T10:45:20;102040.31;;;-14.67;86.67
73824;BME280;62154;54.914;73.444;2022-12-29T10:48:01;102013.84;;;-14.81;86.14
73824;BME280;62154;54.914;73.444;2022-12-29T10:50:31;102050.16;;;-14.72;86.33
73824;BME280;62154;54.914;73.444;2022-12-29T10:53:04;102030.66;;;-14.72;86.43
73824;BME280;62154;54.914;73.444;2022-12-29T10:55:42;102030.47;;;-14.62;86.62
73824;BME280;62154;54.914;73.444;2022-12-29T10:58:20;101944.94;;;-15.04;86.31
73824;BME280;62154;54.914;73.444;2022-12-29T11:00:52;102038.28;;;-14.48;86.42
73824;BME280;62154;54.914;73.444;2022-12-29T11:06:27;101956.31;;;-14.91;85.90
73824;BME280;62154;54.914;73.444;2022-12-29T11:09:09;102015.25;;;-14.50;86.10
73824;BME280;62154;54.914;73.444;2022-12-29T11:11:47;102036.41;;;-14.38;85.92
73824;BME280;62154;54.914;73.444;2022-12-29T11:14:30;102053.28;;;-14.39;85.50
73824;BME280;62154;54.914;73.444;2022-12-29T11:17:04;102030.28;;;-14.45;85.83
73824;BME280;62154;54.914;73.444;2022-12-29T11:19:32;101948.31;;;-14.91;85.54
73824;BME280;62154;54.914;73.444;2022-12-29T11:22:25;101996.84;;;-14.67;85.44
73824;BME280;62154;54.914;73.444;2022-12-29T11:25:09;102033.00;;;-14.49;85.38
73824;BME280;62154;54.914;73.444;2022-12-29T11:28:01;102025.09;;;-14.57;85.59
73824;BME280;62154;54.914;73.444;2022-12-29T11:30:31;102017.25;;;-14.65;85.47
73824;BME280;62154;54.914;73.444;2022-12-29T11:33:03;102032.25;;;-14.61;85.11
73824;BME280;62154;54.914;73.444;2022-12-29T11:35:43;102042.00;;;-14.60;85.50
73824;BME280;62154;54.914;73.444;2022-12-29T11:38:36;102036.81;;;-14.69;85.11
73824;BME280;62154;54.914;73.444;2022-12-29T11:41:05;101969.88;;;-15.14;85.51
73824;BME280;62154;54.914;73.444;2022-12-29T11:43:40;102037.81;;;-14.79;85.80
73824;BME280;62154;54.914;73.444;2022-12-29T11:46:24;102034.41;;;-14.90;85.90
73824;BME280;62154;54.914;73.444;2022-12-29T11:48:56;102030.03;;;-15.01;86.14
73824;BME280;62154;54.914;73.444;2022-12-29T11:51:52;102050.31;;;-14.87;86.18
73824;BME280;62154;54.914;73.444;2022-12-29T11:54:30;102051.25;;;-14.91;86.16
73824;BME280;62154;54.914;73.444;2022-12-29T11:57:14;102046.88;;;-14.96;86.14
73824;BME280;62154;54.914;73.444;2022-12-29T11:59:57;102032.72;;;-15.02;85.77
73824;BME280;62154;54.914;73.444;2022-12-29T12:02:44;102046.88;;;-14.97;85.85
73824;BME280;62154;54.914;73.444;2022-12-29T12:10:35;102065.56;;;-15.02;85.75
73824;BME280;62154;54.914;73.444;2022-12-29T12:13:18;102062.91;;;-15.02;85.58
73824;BME280;62154;54.914;73.444;2022-12-29T12:16:08;102045.25;;;-15.11;85.55
73824;BME280;62154;54.914;73.444;2022-12-29T12:18:53;101975.63;;;-15.57;85.35
73824;BME280;62154;54.914;73.444;2022-12-29T12:21:46;102044.47;;;-15.22;85.42
73824;BME280;62154;54.914;73.444;2022-12-29T12:24:45;102046.28;;;-15.30;85.37
73824;BME280;62154;54.914;73.444;2022-12-29T12:27:20;102068.34;;;-15.17;85.80
73824;BME280;62154;54.914;73.444;2022-12-29T12:33:03;102061.25;;;-15.17;85.53
73824;BME280;62154;54.914;73.444;2022-12-29T12:36:18;101975.69;;;-15.67;85.82
73824;BME280;62154;54.914;73.444;2022-12-29T12:39:02;102058.63;;;-15.18;85.91
73824;BME280;62154;54.914;73.444;2022-12-29T12:44:18;102057.63;;;-15.08;86.13
73824;BME280;62154;54.914;73.444;2022-12-29T12:47:20;102042.56;;;-15.09;86.15
73824;BME280;62154;54.914;73.444;2022-12-29T12:50:18;102047.75;;;-14.97;85.99
73824;BME280;62154;54.914;73.444;2022-12-29T12:58:42;102059.19;;;-14.87;86.07
73824;BME280;62154;54.914;73.444;2022-12-29T13:13:34;101980.81;;;-15.42;85.63
73824;BME280;62154;54.914;73.444;2022-12-29T13:28:10;102066.28;;;-14.87;86.13
73824;BME280;62154;54.914;73.444;2022-12-29T13:30:53;102074.25;;;-14.86;85.59
73824;BME280;62154;54.914;73.444;2022-12-29T13:42:02;102062.06;;;-15.07;86.01
73824;BME280;62154;54.914;73.444;2022-12-29T13:49:58;102052.38;;;-15.16;86.63
73824;BME280;62154;54.914;73.444;2022-12-29T13:52:40;102055.09;;;-15.22;86.79
73824;BME280;62154;54.914;73.444;2022-12-29T14:01:24;101963.34;;;-15.72;87.21
73824;BME280;62154;54.914;73.444;2022-12-29T14:03:57;101983.56;;;-15.51;87.59
73824;BME280;62154;54.914;73.444;2022-12-29T14:06:32;102071.72;;;-14.97;87.53
73824;BME280;62154;54.914;73.444;2022-12-29T14:11:53;102077.91;;;-14.96;87.08
73824;BME280;62154;54.914;73.444;2022-12-29T14:14:27;102092.06;;;-14.93;87.45
73824;BME280;62154;54.914;73.444;2022-12-29T14:17:09;102019.72;;;-15.32;87.20
73824;BME280;62154;54.914;73.444;2022-12-29T14:19:40;102006.38;;;-15.27;87.67
73824;BME280;62154;54.914;73.444;2022-12-29T14:22:23;102084.75;;;-14.72;88.20
73824;BME280;62154;54.914;73.444;2022-12-29T14:24:57;102088.19;;;-14.62;87.92
73824;BME280;62154;54.914;73.444;2022-12-29T14:27:53;102078.47;;;-14.65;87.68
73824;BME280;62154;54.914;73.444;2022-12-29T14:30:46;102087.34;;;-14.66;87.46
73824;BME280;62154;54.914;73.444;2022-12-29T14:33:16;102085.63;;;-14.68;87.65
73824;BME280;62154;54.914;73.444;2022-12-29T14:35:46;102064.38;;;-14.74;87.74
73824;BME280;62154;54.914;73.444;2022-12-29T14:38:44;102073.19;;;-14.69;87.34
73824;BME280;62154;54.914;73.444;2022-12-29T14:41:40;102079.41;;;-14.70;87.62
73824;BME280;62154;54.914;73.444;2022-12-29T14:44:18;102052.88;;;-14.77;87.94
73824;BME280;62154;54.914;73.444;2022-12-29T14:46:59;102069.50;;;-14.61;87.86
73824;BME280;62154;54.914;73.444;2022-12-29T14:49:42;102069.44;;;-14.53;87.82
73824;BME280;62154;54.914;73.444;2022-12-29T14:54:54;102069.44;;;-14.51;87.59
73824;BME280;62154;54.914;73.444;2022-12-29T14:57:35;102063.19;;;-14.50;87.34
73824;BME280;62154;54.914;73.444;2022-12-29T15:03:14;102070.53;;;-14.68;86.53
73824;BME280;62154;54.914;73.444;2022-12-29T15:08:35;102062.97;;;-15.08;87.24
73824;BME280;62154;54.914;73.444;2022-12-29T15:11:14;102078.09;;;-15.13;86.99
73824;BME280;62154;54.914;73.444;2022-12-29T15:13:47;101993.38;;;-15.60;88.13
73824;BME280;62154;54.914;73.444;2022-12-29T15:16:29;102075.31;;;-15.04;88.21